createdAt,value
2018-09-11T00:00:23.036Z,1008.08
2018-09-11T00:01:23.018Z,1008.05
2018-09-11T00:02:23.009Z,1008.06
2018-09-11T00:03:22.999Z,1008.05
2018-09-11T00:04:22.979Z,1008.09
2018-09-11T00:05:22.984Z,1008.10
2018-09-11T00:06:22.964Z,1008.13
2018-09-11T00:07:22.957Z,1008.14
2018-09-11T00:08:22.942Z,1008.15
2018-09-11T00:09:22.946Z,1008.19
2018-09-11T00:10:22.924Z,1008.20
2018-09-11T00:11:22.909Z,1008.20
2018-09-11T00:12:22.904Z,1008.22
2018-09-11T00:13:22.886Z,1008.21
2018-09-11T00:14:22.883Z,1008.23
2018-09-11T00:15:22.892Z,1008.17
2018-09-11T00:16:22.861Z,1008.25
2018-09-11T00:17:22.852Z,1008.20
2018-09-11T00:18:22.830Z,1008.21
2018-09-11T00:19:22.817Z,1008.24
2018-09-11T00:20:22.881Z,1008.17
2018-09-11T00:21:22.801Z,1008.21
2018-09-11T00:22:22.799Z,1008.20
2018-09-11T00:23:22.786Z,1008.16
2018-09-11T00:24:22.773Z,1008.10
2018-09-11T00:25:22.753Z,1008.10
2018-09-11T00:26:22.788Z,1008.08
2018-09-11T00:27:22.744Z,1008.03
2018-09-11T00:28:22.727Z,1008.07
2018-09-11T00:29:22.715Z,1008.08
2018-09-11T00:30:22.707Z,1008.13
2018-09-11T00:31:22.724Z,1008.06
2018-09-11T00:32:22.690Z,1008.09
2018-09-11T00:33:22.678Z,1008.09
2018-09-11T00:34:22.697Z,1008.11
2018-09-11T00:35:22.658Z,1008.14
2018-09-11T00:36:22.650Z,1008.08
2018-09-11T00:37:22.644Z,1008.11
2018-09-11T00:38:22.631Z,1008.06
2018-09-11T00:39:22.614Z,1008.00
2018-09-11T00:40:22.608Z,1008.01
2018-09-11T00:41:22.594Z,1008.01
2018-09-11T00:42:22.603Z,1008.02
2018-09-11T00:43:22.607Z,1008.01
2018-09-11T00:44:22.557Z,1008.00
2018-09-11T00:45:22.538Z,1007.96
2018-09-11T00:46:22.537Z,1007.92
2018-09-11T00:47:22.526Z,1007.94
2018-09-11T00:48:22.509Z,1007.95
2018-09-11T00:49:22.498Z,1007.96
2018-09-11T00:50:22.497Z,1007.93
2018-09-11T00:51:22.484Z,1007.94
2018-09-11T00:52:22.504Z,1007.94
2018-09-11T00:53:22.497Z,1007.90
2018-09-11T00:54:22.451Z,1007.93
2018-09-11T00:55:22.451Z,1007.89
2018-09-11T00:56:22.435Z,1007.85
2018-09-11T00:57:22.417Z,1007.84
2018-09-11T00:58:22.409Z,1007.84
2018-09-11T00:59:22.390Z,1007.81
2018-09-11T01:00:22.422Z,1007.79
2018-09-11T01:01:22.415Z,1007.79
2018-09-11T01:02:22.375Z,1007.81
2018-09-11T01:03:22.361Z,1007.78
2018-09-11T01:04:22.350Z,1007.76
2018-09-11T01:05:22.340Z,1007.74
2018-09-11T01:06:22.324Z,1007.72
2018-09-11T01:07:22.318Z,1007.75
2018-09-11T01:08:22.306Z,1007.72
2018-09-11T01:09:22.284Z,1007.72
2018-09-11T01:10:22.330Z,1007.70
2018-09-11T01:11:22.274Z,1007.71
2018-09-11T01:12:22.258Z,1007.72
2018-09-11T01:13:22.246Z,1007.73
2018-09-11T01:14:22.243Z,1007.74
2018-09-11T01:15:22.229Z,1007.76
2018-09-11T01:16:22.250Z,1007.74
2018-09-11T01:17:22.196Z,1007.75
2018-09-11T01:18:22.188Z,1007.77
2018-09-11T01:19:22.185Z,1007.79
2018-09-11T01:20:22.231Z,1007.80
2018-09-11T01:21:22.166Z,1007.77
2018-09-11T01:22:22.154Z,1007.80
2018-09-11T01:23:22.144Z,1007.79
2018-09-11T01:24:22.131Z,1007.77
2018-09-11T01:25:22.119Z,1007.77
2018-09-11T01:26:22.152Z,1007.74
2018-09-11T01:27:22.100Z,1007.72
2018-09-11T01:28:22.091Z,1007.75
2018-09-11T01:29:22.082Z,1007.72
2018-09-11T01:30:22.062Z,1007.73
2018-09-11T01:31:22.078Z,1007.67
2018-09-11T01:32:22.055Z,1007.69
2018-09-11T01:33:22.037Z,1007.68
2018-09-11T01:34:22.035Z,1007.63
2018-09-11T01:35:22.079Z,1007.65
2018-09-11T01:36:22.004Z,1007.63
2018-09-11T01:37:21.995Z,1007.62
2018-09-11T01:38:21.984Z,1007.60
2018-09-11T01:39:21.968Z,1007.62
2018-09-11T01:40:21.949Z,1007.60
2018-09-11T01:41:21.981Z,1007.60
2018-09-11T01:42:21.935Z,1007.61
2018-09-11T01:43:21.921Z,1007.63
2018-09-11T01:44:21.906Z,1007.64
2018-09-11T01:45:21.911Z,1007.61
2018-09-11T01:46:21.927Z,1007.59
2018-09-11T01:47:21.884Z,1007.66
2018-09-11T01:48:21.905Z,1007.62
2018-09-11T01:49:21.865Z,1007.67
2018-09-11T01:50:21.851Z,1007.65
2018-09-11T01:51:21.832Z,1007.59
2018-09-11T01:52:21.827Z,1007.54
2018-09-11T01:53:21.839Z,1007.56
2018-09-11T01:54:21.812Z,1007.58
2018-09-11T01:55:21.797Z,1007.57
2018-09-11T01:56:21.790Z,1007.57
2018-09-11T01:57:21.773Z,1007.59
2018-09-11T01:58:21.771Z,1007.62
2018-09-11T01:59:21.762Z,1007.58
2018-09-11T02:00:21.736Z,1007.58
2018-09-11T02:01:21.731Z,1007.60
2018-09-11T02:02:21.717Z,1007.60
2018-09-11T02:03:21.761Z,1007.55
2018-09-11T02:04:21.696Z,1007.52
2018-09-11T02:05:21.686Z,1007.51
2018-09-11T02:06:21.682Z,1007.56
2018-09-11T02:07:21.654Z,1007.56
2018-09-11T02:08:21.652Z,1007.60
2018-09-11T02:09:21.653Z,1007.55
2018-09-11T02:10:21.637Z,1007.59
2018-09-11T02:11:21.651Z,1007.57
2018-09-11T02:12:21.615Z,1007.62
2018-09-11T02:13:21.601Z,1007.64
2018-09-11T02:14:21.580Z,1007.64
2018-09-11T02:15:21.610Z,1007.54
2018-09-11T02:16:21.573Z,1007.57
2018-09-11T02:17:21.564Z,1007.56
2018-09-11T02:18:21.541Z,1007.55
2018-09-11T02:19:21.538Z,1007.57
2018-09-11T02:20:21.519Z,1007.56
2018-09-11T02:21:21.533Z,1007.58
2018-09-11T02:22:21.507Z,1007.56
2018-09-11T02:23:21.491Z,1007.54
2018-09-11T02:24:21.473Z,1007.59
2018-09-11T02:25:21.470Z,1007.56
2018-09-11T02:26:21.455Z,1007.56
2018-09-11T02:27:21.441Z,1007.59
2018-09-11T02:28:21.466Z,1007.59
2018-09-11T02:29:21.415Z,1007.62
2018-09-11T02:30:21.405Z,1007.60
2018-09-11T02:31:21.407Z,1007.61
2018-09-11T02:32:21.375Z,1007.67
2018-09-11T02:33:21.372Z,1007.64
2018-09-11T02:34:21.366Z,1007.67
2018-09-11T02:35:21.353Z,1007.69
2018-09-11T02:36:21.414Z,1007.67
2018-09-11T02:37:21.329Z,1007.68
2018-09-11T02:38:21.328Z,1007.63
2018-09-11T02:39:21.314Z,1007.60
2018-09-11T02:40:21.296Z,1007.60
2018-09-11T02:41:21.498Z,1007.63
2018-09-11T02:42:21.276Z,1007.63
2018-09-11T02:43:21.452Z,1007.64
2018-09-11T02:44:21.251Z,1007.63
2018-09-11T02:45:21.236Z,1007.61
2018-09-11T02:46:21.235Z,1007.65
2018-09-11T02:47:21.242Z,1007.67
2018-09-11T02:48:21.248Z,1007.69
2018-09-11T02:49:21.583Z,1007.69
2018-09-11T02:50:21.189Z,1007.73
2018-09-11T02:51:21.181Z,1007.77
2018-09-11T02:52:21.168Z,1007.73
2018-09-11T02:53:21.149Z,1007.70
2018-09-11T02:54:21.146Z,1007.69
2018-09-11T02:55:21.157Z,1007.67
2018-09-11T02:56:21.127Z,1007.69
2018-09-11T02:57:21.632Z,1007.65
2018-09-11T02:58:21.094Z,1007.63
2018-09-11T02:59:21.082Z,1007.62
2018-09-11T03:00:21.078Z,1007.59
2018-09-11T03:01:21.063Z,1007.55
2018-09-11T03:02:21.050Z,1007.56
2018-09-11T03:03:21.070Z,1007.56
2018-09-11T03:04:21.028Z,1007.55
2018-09-11T03:05:21.023Z,1007.55
2018-09-11T03:06:21.070Z,1007.56
2018-09-11T03:07:20.991Z,1007.51
2018-09-11T03:08:20.980Z,1007.52
2018-09-11T03:09:20.974Z,1007.51
2018-09-11T03:10:20.959Z,1007.49
2018-09-11T03:11:20.950Z,1007.51
2018-09-11T03:12:20.975Z,1007.49
2018-09-11T03:13:20.925Z,1007.50
2018-09-11T03:14:20.919Z,1007.50
2018-09-11T03:15:20.905Z,1007.51
2018-09-11T03:16:20.891Z,1007.53
2018-09-11T03:17:20.881Z,1007.56
2018-09-11T03:18:20.878Z,1007.60
2018-09-11T03:19:20.847Z,1007.55
2018-09-11T03:20:20.850Z,1007.57
2018-09-11T03:21:20.840Z,1007.57
2018-09-11T03:22:20.889Z,1007.57
2018-09-11T03:23:20.805Z,1007.62
2018-09-11T03:24:20.804Z,1007.61
2018-09-11T03:25:20.791Z,1007.59
2018-09-11T03:26:20.775Z,1007.61
2018-09-11T03:27:20.772Z,1007.62
2018-09-11T03:28:20.756Z,1007.64
2018-09-11T03:29:20.735Z,1007.62
2018-09-11T03:30:20.738Z,1007.65
2018-09-11T03:31:20.723Z,1007.65
2018-09-11T03:32:20.707Z,1007.67
2018-09-11T03:33:20.730Z,1007.65
2018-09-11T03:34:20.744Z,1007.62
2018-09-11T03:35:20.673Z,1007.60
2018-09-11T03:36:20.669Z,1007.60
2018-09-11T03:37:20.650Z,1007.59
2018-09-11T03:38:20.645Z,1007.60
2018-09-11T03:39:20.635Z,1007.58
2018-09-11T03:40:20.643Z,1007.63
2018-09-11T03:41:20.607Z,1007.62
2018-09-11T03:42:20.594Z,1007.63
2018-09-11T03:43:20.583Z,1007.65
2018-09-11T03:44:20.622Z,1007.62
2018-09-11T03:45:20.618Z,1007.58
2018-09-11T03:46:20.551Z,1007.55
2018-09-11T03:47:20.540Z,1007.54
2018-09-11T03:48:20.529Z,1007.52
2018-09-11T03:49:20.505Z,1007.55
2018-09-11T03:50:20.502Z,1007.48
2018-09-11T03:51:20.503Z,1007.49
2018-09-11T03:52:20.478Z,1007.47
2018-09-11T03:53:20.461Z,1007.47
2018-09-11T03:54:20.455Z,1007.47
2018-09-11T03:55:20.442Z,1007.49
2018-09-11T03:56:20.482Z,1007.49
2018-09-11T03:57:20.420Z,1007.48
2018-09-11T03:58:20.418Z,1007.49
2018-09-11T03:59:20.482Z,1007.50
2018-09-11T04:00:20.382Z,1007.47
2018-09-11T04:01:20.374Z,1007.46
2018-09-11T04:02:20.393Z,1007.42
2018-09-11T04:03:20.368Z,1007.36
2018-09-11T04:04:20.361Z,1007.32
2018-09-11T04:05:20.405Z,1007.38
2018-09-11T04:06:20.328Z,1007.36
2018-09-11T04:07:20.302Z,1007.40
2018-09-11T04:08:20.307Z,1007.38
2018-09-11T04:09:20.283Z,1007.38
2018-09-11T04:10:20.277Z,1007.39
2018-09-11T04:11:20.258Z,1007.41
2018-09-11T04:12:20.246Z,1007.41
2018-09-11T04:13:20.312Z,1007.46
2018-09-11T04:14:20.228Z,1007.42
2018-09-11T04:15:20.212Z,1007.44
2018-09-11T04:16:20.208Z,1007.40
2018-09-11T04:17:20.193Z,1007.33
2018-09-11T04:18:20.193Z,1007.38
2018-09-11T04:19:20.225Z,1007.37
2018-09-11T04:20:20.159Z,1007.37
2018-09-11T04:21:20.147Z,1007.37
2018-09-11T04:22:20.134Z,1007.29
2018-09-11T04:23:20.129Z,1007.26
2018-09-11T04:24:20.117Z,1007.25
2018-09-11T04:25:20.108Z,1007.22
2018-09-11T04:26:20.092Z,1007.25
2018-09-11T04:27:20.077Z,1007.16
2018-09-11T04:28:20.072Z,1007.13
2018-09-11T04:29:20.058Z,1007.12
2018-09-11T04:30:20.044Z,1007.11
2018-09-11T04:31:20.093Z,1007.10
2018-09-11T04:32:20.021Z,1007.13
2018-09-11T04:33:20.014Z,1007.11
2018-09-11T04:34:20.002Z,1007.06
2018-09-11T04:35:19.989Z,1007.09
2018-09-11T04:36:20.043Z,1007.05
2018-09-11T04:37:20.000Z,1007.01
2018-09-11T04:38:19.964Z,1006.99
2018-09-11T04:39:19.950Z,1007.02
2018-09-11T04:40:19.933Z,1007.02
2018-09-11T04:41:19.925Z,1007.01
2018-09-11T04:42:19.942Z,1006.97
2018-09-11T04:43:19.908Z,1006.95
2018-09-11T04:44:19.891Z,1006.95
2018-09-11T04:45:19.878Z,1006.90
2018-09-11T04:46:19.858Z,1006.90
2018-09-11T04:47:19.860Z,1006.83
2018-09-11T04:48:19.859Z,1006.86
2018-09-11T04:49:19.831Z,1006.88
2018-09-11T04:50:19.819Z,1006.79
2018-09-11T04:51:19.805Z,1006.87
2018-09-11T04:52:19.794Z,1006.89
2018-09-11T04:53:19.817Z,1006.85
2018-09-11T04:54:19.767Z,1006.84
2018-09-11T04:55:19.754Z,1006.83
2018-09-11T04:56:19.740Z,1006.85
2018-09-11T04:57:19.739Z,1006.86
2018-09-11T04:58:19.762Z,1006.88
2018-09-11T04:59:19.797Z,1006.89
2018-09-11T05:00:19.703Z,1006.83
2018-09-11T05:01:19.697Z,1006.88
2018-09-11T05:02:19.684Z,1006.87
2018-09-11T05:03:19.668Z,1006.83
2018-09-11T05:04:19.663Z,1006.87
2018-09-11T05:05:19.651Z,1006.86
2018-09-11T05:06:19.632Z,1006.87
2018-09-11T05:07:19.619Z,1006.80
2018-09-11T05:08:19.610Z,1006.81
2018-09-11T05:09:19.597Z,1006.80
2018-09-11T05:10:19.622Z,1006.78
2018-09-11T05:11:19.606Z,1006.81
2018-09-11T05:12:19.559Z,1006.80
2018-09-11T05:13:19.550Z,1006.76
2018-09-11T05:14:19.548Z,1006.76
2018-09-11T05:15:19.536Z,1006.76
2018-09-11T05:16:19.579Z,1006.78
2018-09-11T05:17:19.508Z,1006.74
2018-09-11T05:18:19.497Z,1006.78
2018-09-11T05:19:19.625Z,1006.78
2018-09-11T05:20:19.475Z,1006.75
2018-09-11T05:21:19.458Z,1006.72
2018-09-11T05:22:19.455Z,1006.74
2018-09-11T05:23:19.450Z,1006.75
2018-09-11T05:24:19.427Z,1006.72
2018-09-11T05:25:19.409Z,1006.73
2018-09-11T05:26:19.429Z,1006.74
2018-09-11T05:27:19.402Z,1006.71
2018-09-11T05:28:19.433Z,1006.74
2018-09-11T05:29:19.365Z,1006.78
2018-09-11T05:30:19.350Z,1006.75
2018-09-11T05:31:19.341Z,1006.74
2018-09-11T05:32:19.336Z,1006.75
2018-09-11T05:33:19.313Z,1006.76
2018-09-11T05:34:19.340Z,1006.75
2018-09-11T05:35:19.300Z,1006.75
2018-09-11T05:36:19.273Z,1006.77
2018-09-11T05:37:19.278Z,1006.77
2018-09-11T05:38:19.293Z,1006.81
2018-09-11T05:39:19.252Z,1006.83
2018-09-11T05:40:19.238Z,1006.89
2018-09-11T05:41:19.305Z,1006.87
2018-09-11T05:42:19.219Z,1006.88
2018-09-11T05:43:19.209Z,1006.88
2018-09-11T05:44:19.192Z,1006.87
2018-09-11T05:45:19.178Z,1006.95
2018-09-11T05:46:19.176Z,1006.90
2018-09-11T05:47:19.180Z,1006.91
2018-09-11T05:48:19.144Z,1006.99
2018-09-11T05:49:19.136Z,1006.95
2018-09-11T05:50:19.120Z,1006.93
2018-09-11T05:51:19.114Z,1006.93
2018-09-11T05:52:19.138Z,1006.96
2018-09-11T05:53:19.164Z,1006.98
2018-09-11T05:54:19.073Z,1006.96
2018-09-11T05:55:19.059Z,1007.00
2018-09-11T05:56:19.049Z,1006.95
2018-09-11T05:57:19.032Z,1006.92
2018-09-11T05:58:19.034Z,1006.93
2018-09-11T05:59:19.065Z,1006.94
2018-09-11T06:00:18.999Z,1006.92
2018-09-11T06:01:18.981Z,1006.96
2018-09-11T06:02:18.982Z,1007.02
2018-09-11T06:03:18.965Z,1007.03
2018-09-11T06:04:18.955Z,1007.05
2018-09-11T06:05:18.946Z,1007.01
2018-09-11T06:06:18.936Z,1006.98
2018-09-11T06:07:18.921Z,1007.00
2018-09-11T06:08:18.903Z,1006.99
2018-09-11T06:09:18.894Z,1006.97
2018-09-11T06:10:18.926Z,1006.97
2018-09-11T06:11:18.875Z,1006.96
2018-09-11T06:12:18.859Z,1006.96
2018-09-11T06:13:18.849Z,1006.89
2018-09-11T06:14:18.846Z,1006.90
2018-09-11T06:15:18.829Z,1006.87
2018-09-11T06:16:18.920Z,1006.96
2018-09-11T06:17:18.805Z,1006.97
2018-09-11T06:18:18.791Z,1006.99
2018-09-11T06:19:18.784Z,1006.96
2018-09-11T06:20:18.771Z,1007.03
2018-09-11T06:21:18.763Z,1007.02
2018-09-11T06:22:18.750Z,1007.06
2018-09-11T06:23:18.741Z,1007.02
2018-09-11T06:24:18.723Z,1007.03
2018-09-11T06:25:18.704Z,1007.00
2018-09-11T06:26:18.701Z,1007.04
2018-09-11T06:27:18.739Z,1007.05
2018-09-11T06:28:18.692Z,1007.10
2018-09-11T06:29:18.829Z,1007.13
2018-09-11T06:30:18.651Z,1007.11
2018-09-11T06:31:18.647Z,1007.13
2018-09-11T06:32:18.633Z,1007.09
2018-09-11T06:33:18.659Z,1007.10
2018-09-11T06:34:18.609Z,1007.12
2018-09-11T06:35:18.596Z,1007.13
2018-09-11T06:36:18.593Z,1007.13
2018-09-11T06:37:18.577Z,1007.13
2018-09-11T06:38:18.604Z,1007.13
2018-09-11T06:39:18.569Z,1007.17
2018-09-11T06:40:18.612Z,1007.15
2018-09-11T06:41:18.583Z,1007.14
2018-09-11T06:42:18.518Z,1007.13
2018-09-11T06:43:18.517Z,1007.17
2018-09-11T06:44:18.499Z,1007.16
2018-09-11T06:45:18.489Z,1007.20
2018-09-11T06:46:18.501Z,1007.23
2018-09-11T06:47:18.480Z,1007.28
2018-09-11T06:48:18.455Z,1007.30
2018-09-11T06:49:18.448Z,1007.24
2018-09-11T06:50:18.458Z,1007.31
2018-09-11T06:51:18.430Z,1007.25
2018-09-11T06:52:18.408Z,1007.28
2018-09-11T06:53:18.403Z,1007.30
2018-09-11T06:54:18.389Z,1007.25
2018-09-11T06:55:18.401Z,1007.24
2018-09-11T06:56:18.363Z,1007.26
2018-09-11T06:57:18.394Z,1007.21
2018-09-11T06:58:18.335Z,1007.29
2018-09-11T06:59:18.332Z,1007.22
2018-09-11T07:00:18.321Z,1007.22
2018-09-11T07:01:18.303Z,1007.20
2018-09-11T07:02:18.329Z,1007.17
2018-09-11T07:03:18.280Z,1007.14
2018-09-11T07:04:18.282Z,1007.11
2018-09-11T07:05:18.268Z,1007.13
2018-09-11T07:06:18.246Z,1007.09
2018-09-11T07:07:18.276Z,1007.08
2018-09-11T07:08:18.252Z,1007.14
2018-09-11T07:09:18.229Z,1007.11
2018-09-11T07:10:18.211Z,1007.05
2018-09-11T07:11:18.193Z,1007.12
2018-09-11T07:12:18.215Z,1007.06
2018-09-11T07:13:18.169Z,1007.12
2018-09-11T07:14:18.172Z,1007.17
2018-09-11T07:15:18.145Z,1007.21
2018-09-11T07:16:18.141Z,1007.16
2018-09-11T07:17:18.203Z,1007.21
2018-09-11T07:18:18.120Z,1007.20
2018-09-11T07:19:18.119Z,1007.19
2018-09-11T07:20:18.371Z,1007.19
2018-09-11T07:21:18.094Z,1007.18
2018-09-11T07:22:18.082Z,1007.20
2018-09-11T07:23:18.095Z,1007.18
2018-09-11T07:24:18.056Z,1007.22
2018-09-11T07:25:18.045Z,1007.29
2018-09-11T07:26:18.043Z,1007.23
2018-09-11T07:27:18.060Z,1007.26
2018-09-11T07:28:18.025Z,1007.26
2018-09-11T07:29:18.004Z,1007.28
2018-09-11T07:30:18.046Z,1007.27
2018-09-11T07:31:17.990Z,1007.35
2018-09-11T07:32:18.068Z,1007.28
2018-09-11T07:33:17.960Z,1007.34
2018-09-11T07:34:17.953Z,1007.31
2018-09-11T07:35:17.938Z,1007.28
2018-09-11T07:36:17.959Z,1007.34
2018-09-11T07:37:17.921Z,1007.34
2018-09-11T07:38:17.961Z,1007.33
2018-09-11T07:39:17.900Z,1007.31
2018-09-11T07:40:17.888Z,1007.40
2018-09-11T07:41:17.874Z,1007.42
2018-09-11T07:42:17.851Z,1007.42
2018-09-11T07:43:17.843Z,1007.41
2018-09-11T07:44:17.848Z,1007.48
2018-09-11T07:45:18.099Z,1007.44
2018-09-11T07:46:17.822Z,1007.42
2018-09-11T07:47:17.813Z,1007.45
2018-09-11T07:48:17.802Z,1007.50
2018-09-11T07:49:17.795Z,1007.50
2018-09-11T07:50:17.775Z,1007.54
2018-09-11T07:51:17.772Z,1007.51
2018-09-11T07:52:17.762Z,1007.48
2018-09-11T07:53:17.750Z,1007.55
2018-09-11T07:54:17.735Z,1007.44
2018-09-11T07:55:17.729Z,1007.42
2018-09-11T07:56:17.710Z,1007.38
2018-09-11T07:57:17.697Z,1007.35
2018-09-11T07:58:17.696Z,1007.37
2018-09-11T07:59:17.682Z,1007.33
2018-09-11T08:00:17.695Z,1007.39
2018-09-11T08:01:17.672Z,1007.34
2018-09-11T08:02:17.656Z,1007.38
2018-09-11T08:03:17.646Z,1007.32
2018-09-11T08:04:17.624Z,1007.35
2018-09-11T08:05:17.675Z,1007.42
2018-09-11T08:06:17.672Z,1007.27
2018-09-11T08:07:17.593Z,1007.24
2018-09-11T08:08:17.589Z,1007.25
2018-09-11T08:09:17.567Z,1007.30
2018-09-11T08:10:17.572Z,1007.29
2018-09-11T08:11:17.553Z,1007.30
2018-09-11T08:12:17.569Z,1007.35
2018-09-11T08:13:17.538Z,1007.33
2018-09-11T08:14:17.532Z,1007.30
2018-09-11T08:15:17.508Z,1007.34
2018-09-11T08:16:17.531Z,1007.29
2018-09-11T08:17:17.516Z,1007.26
2018-09-11T08:18:17.479Z,1007.30
2018-09-11T08:19:17.497Z,1007.28
2018-09-11T08:20:17.456Z,1007.23
2018-09-11T08:21:17.455Z,1007.25
2018-09-11T08:22:17.449Z,1007.23
2018-09-11T08:23:17.443Z,1007.21
2018-09-11T08:24:17.426Z,1007.20
2018-09-11T08:25:17.419Z,1007.14
2018-09-11T08:26:17.410Z,1007.13
2018-09-11T08:27:17.394Z,1007.15
2018-09-11T08:28:17.406Z,1007.11
2018-09-11T08:29:17.423Z,1007.13
2018-09-11T08:30:17.368Z,1007.10
2018-09-11T08:31:17.352Z,1007.12
2018-09-11T08:32:17.348Z,1007.11
2018-09-11T08:33:17.382Z,1007.09
2018-09-11T08:34:17.362Z,1007.05
2018-09-11T08:35:17.319Z,1007.06
2018-09-11T08:36:17.303Z,1007.04
2018-09-11T08:37:17.626Z,1007.03
2018-09-11T08:38:17.468Z,1007.18
2018-09-11T08:39:17.461Z,1007.11
2018-09-11T08:40:17.265Z,1007.17
2018-09-11T08:41:17.273Z,1007.20
2018-09-11T08:42:17.246Z,1007.25
2018-09-11T08:43:17.234Z,1007.24
2018-09-11T08:44:17.226Z,1007.22
2018-09-11T08:45:17.258Z,1007.23
2018-09-11T08:46:17.211Z,1007.16
2018-09-11T08:47:17.206Z,1007.29
2018-09-11T08:48:17.188Z,1007.26
2018-09-11T08:49:17.236Z,1007.21
2018-09-11T08:50:17.163Z,1007.20
2018-09-11T08:51:17.164Z,1007.22
2018-09-11T08:52:17.162Z,1007.26
2018-09-11T08:53:17.137Z,1007.20
2018-09-11T08:54:17.131Z,1007.17
2018-09-11T08:55:17.185Z,1007.20
2018-09-11T08:56:17.124Z,1007.19
2018-09-11T08:57:17.104Z,1007.24
2018-09-11T08:58:17.089Z,1007.18
2018-09-11T08:59:17.085Z,1007.18
2018-09-11T09:00:17.070Z,1007.15
2018-09-11T09:01:17.066Z,1007.21
2018-09-11T09:02:17.060Z,1007.20
2018-09-11T09:03:17.032Z,1007.15
2018-09-11T09:04:17.056Z,1007.18
2018-09-11T09:05:17.025Z,1007.07
2018-09-11T09:06:17.019Z,1007.11
2018-09-11T09:07:17.139Z,1007.11
2018-09-11T09:08:16.999Z,1007.14
2018-09-11T09:09:16.993Z,1007.18
2018-09-11T09:10:16.981Z,1007.14
2018-09-11T09:11:16.966Z,1007.15
2018-09-11T09:12:16.964Z,1007.25
2018-09-11T09:13:16.957Z,1007.22
2018-09-11T09:14:16.968Z,1007.31
2018-09-11T09:15:16.937Z,1007.20
2018-09-11T09:16:16.926Z,1007.20
2018-09-11T09:17:16.918Z,1007.16
2018-09-11T09:18:16.926Z,1007.15
2018-09-11T09:19:16.897Z,1007.16
2018-09-11T09:20:16.893Z,1007.22
2018-09-11T09:21:16.914Z,1007.24
2018-09-11T09:22:16.868Z,1007.20
2018-09-11T09:23:16.856Z,1007.16
2018-09-11T09:24:16.909Z,1007.21
2018-09-11T09:25:16.846Z,1007.08
2018-09-11T09:26:16.838Z,1007.27
2018-09-11T09:27:16.889Z,1007.14
2018-09-11T09:28:16.834Z,1007.14
2018-09-11T09:29:16.812Z,1007.11
2018-09-11T09:30:16.808Z,1007.15
2018-09-11T09:31:16.805Z,1007.15
2018-09-11T09:32:16.789Z,1007.12
2018-09-11T09:33:17.121Z,1007.09
2018-09-11T09:34:16.785Z,1007.05
2018-09-11T09:35:16.775Z,1007.02
2018-09-11T09:36:16.759Z,1007.02
2018-09-11T09:37:16.743Z,1007.03
2018-09-11T09:38:16.775Z,1007.05
2018-09-11T09:39:16.742Z,1007.08
2018-09-11T09:40:16.728Z,1007.05
2018-09-11T09:41:16.769Z,1007.07
2018-09-11T09:42:16.719Z,1007.22
2018-09-11T09:43:16.703Z,1007.14
2018-09-11T09:44:16.696Z,1007.14
2018-09-11T09:45:16.681Z,1007.12
2018-09-11T09:46:16.677Z,1007.16
2018-09-11T09:47:16.696Z,1007.07
2018-09-11T09:48:16.654Z,1007.26
2018-09-11T09:49:16.649Z,1007.20
2018-09-11T09:50:16.654Z,1007.23
2018-09-11T09:51:16.635Z,1007.18
2018-09-11T09:52:16.647Z,1007.25
2018-09-11T09:53:16.614Z,1007.15
2018-09-11T09:54:16.645Z,1007.12
2018-09-11T09:55:16.607Z,1007.15
2018-09-11T09:56:16.581Z,1007.06
2018-09-11T09:57:16.588Z,1007.11
2018-09-11T09:58:16.640Z,1007.14
2018-09-11T09:59:16.569Z,1007.19
2018-09-11T10:00:16.552Z,1007.12
2018-09-11T10:01:16.554Z,1007.21
2018-09-11T10:02:16.540Z,1007.16
2018-09-11T10:03:16.534Z,1007.17
2018-09-11T10:04:16.556Z,1007.11
2018-09-11T10:05:16.516Z,1007.07
2018-09-11T10:06:16.505Z,1007.10
2018-09-11T10:07:16.555Z,1007.07
2018-09-11T10:08:16.484Z,1007.12
2018-09-11T10:09:16.477Z,1007.10
2018-09-11T10:10:16.474Z,1007.06
2018-09-11T10:11:16.481Z,1007.09
2018-09-11T10:12:16.455Z,1007.09
2018-09-11T10:13:16.455Z,1007.12
2018-09-11T10:14:16.432Z,1007.13
2018-09-11T10:15:16.428Z,1007.12
2018-09-11T10:16:16.416Z,1007.10
2018-09-11T10:17:16.412Z,1007.13
2018-09-11T10:18:16.443Z,1007.11
2018-09-11T10:19:16.403Z,1007.03
2018-09-11T10:20:16.383Z,1007.05
2018-09-11T10:21:16.382Z,1007.07
2018-09-11T10:22:16.374Z,1007.09
2018-09-11T10:23:16.360Z,1007.22
2018-09-11T10:24:16.390Z,1007.14
2018-09-11T10:25:16.342Z,1007.22
2018-09-11T10:26:16.333Z,1007.14
2018-09-11T10:27:16.355Z,1007.12
2018-09-11T10:28:16.309Z,1007.13
2018-09-11T10:29:16.314Z,1007.08
2018-09-11T10:30:16.300Z,1007.20
2018-09-11T10:31:16.297Z,1007.10
2018-09-11T10:32:16.314Z,1007.08
2018-09-11T10:33:16.273Z,1007.06
2018-09-11T10:34:16.254Z,1007.07
2018-09-11T10:35:16.260Z,1007.10
2018-09-11T10:36:16.250Z,1007.05
2018-09-11T10:37:16.278Z,1007.00
2018-09-11T10:38:16.227Z,1007.05
2018-09-11T10:39:16.271Z,1007.11
2018-09-11T10:40:16.214Z,1007.23
2018-09-11T10:41:16.202Z,1007.22
2018-09-11T10:42:16.235Z,1007.11
2018-09-11T10:43:16.194Z,1007.12
2018-09-11T10:44:16.180Z,1007.22
2018-09-11T10:45:16.172Z,1007.21
2018-09-11T10:46:16.170Z,1007.23
2018-09-11T10:47:16.207Z,1007.23
2018-09-11T10:48:16.150Z,1007.25
2018-09-11T10:49:16.165Z,1007.26
2018-09-11T10:50:16.358Z,1007.23
2018-09-11T10:51:16.139Z,1007.32
2018-09-11T10:52:16.143Z,1007.21
2018-09-11T10:53:16.110Z,1007.29
2018-09-11T10:54:16.102Z,1007.22
2018-09-11T10:55:16.081Z,1007.09
2018-09-11T10:56:16.108Z,1007.15
2018-09-11T10:57:16.073Z,1007.10
2018-09-11T10:58:16.079Z,1007.16
2018-09-11T10:59:16.052Z,1007.12
2018-09-11T11:00:16.072Z,1007.09
2018-09-11T11:01:16.045Z,1007.18
2018-09-11T11:02:16.033Z,1007.20
2018-09-11T11:03:16.016Z,1007.14
2018-09-11T11:04:16.015Z,1007.10
2018-09-11T11:05:16.076Z,1007.11
2018-09-11T11:06:15.996Z,1007.16
2018-09-11T11:07:15.996Z,1007.17
2018-09-11T11:08:15.995Z,1007.17
2018-09-11T11:09:15.980Z,1007.08
2018-09-11T11:10:15.977Z,1007.05
2018-09-11T11:11:15.993Z,1007.06
2018-09-11T11:12:15.959Z,1007.06
2018-09-11T11:13:15.952Z,1007.11
2018-09-11T11:14:15.939Z,1007.03
2018-09-11T11:15:15.960Z,1006.98
2018-09-11T11:16:16.171Z,1007.06
2018-09-11T11:17:15.905Z,1007.06
2018-09-11T11:18:15.907Z,1007.13
2018-09-11T11:19:15.898Z,1007.09
2018-09-11T11:20:15.889Z,1007.11
2018-09-11T11:21:15.912Z,1007.06
2018-09-11T11:22:15.879Z,1007.07
2018-09-11T11:23:15.865Z,1007.03
2018-09-11T11:24:15.894Z,1007.08
2018-09-11T11:25:15.847Z,1007.02
2018-09-11T11:26:15.837Z,1007.14
2018-09-11T11:27:15.864Z,1007.09
2018-09-11T11:28:15.824Z,1007.00
2018-09-11T11:29:15.896Z,1007.14
2018-09-11T11:30:15.819Z,1007.16
2018-09-11T11:31:15.799Z,1007.24
2018-09-11T11:32:15.843Z,1007.13
2018-09-11T11:33:15.792Z,1007.18
2018-09-11T11:34:15.776Z,1007.14
2018-09-11T11:35:15.779Z,1007.21
2018-09-11T11:36:16.214Z,1007.07
2018-09-11T11:37:15.911Z,1007.08
2018-09-11T11:38:15.747Z,1007.07
2018-09-11T11:39:15.745Z,1007.00
2018-09-11T11:40:15.734Z,1007.03
2018-09-11T11:41:15.725Z,1007.01
2018-09-11T11:42:15.773Z,1006.98
2018-09-11T11:43:15.708Z,1006.99
2018-09-11T11:44:15.694Z,1006.96
2018-09-11T11:45:15.706Z,1006.96
2018-09-11T11:46:15.689Z,1006.97
2018-09-11T11:47:15.682Z,1007.03
2018-09-11T11:48:15.743Z,1006.95
2018-09-11T11:49:15.663Z,1007.01
2018-09-11T11:50:15.879Z,1007.02
2018-09-11T11:51:15.645Z,1006.95
2018-09-11T11:52:15.646Z,1006.92
2018-09-11T11:53:15.640Z,1006.89
2018-09-11T11:54:15.689Z,1006.92
2018-09-11T11:55:15.726Z,1007.01
2018-09-11T11:56:15.615Z,1006.96
2018-09-11T11:57:15.605Z,1007.08
2018-09-11T11:58:15.595Z,1006.97
2018-09-11T11:59:15.583Z,1006.97
2018-09-11T12:00:15.583Z,1007.00
2018-09-11T12:01:15.584Z,1007.13
2018-09-11T12:02:15.559Z,1007.08
2018-09-11T12:03:15.598Z,1007.04
2018-09-11T12:04:15.553Z,1006.93
2018-09-11T12:05:15.547Z,1006.97